Time;durP1;ratioP1;P1;durP2;ratioP2;P2;SDS_P1;SDS_P2;PMS_P1;PMS_P2;Temp;Humidity;BMP_temperature;BMP_pressure;BME280_temperature;BME280_humidity;BME280_pressure;Samples;Min_cycle;Max_cycle;Signal;HPM_P1;HPM_P2
2022/05/08 00:00:01;;;;;;;16.75;2.97;;;6.60;99.90;;;;;;5013578;28;20048;-49
2022/05/08 00:02:26;;;;;;;18.48;3.28;;;6.60;99.90;;;;;;5013322;28;20505;-47
2022/05/08 00:04:53;;;;;;;8.38;2.58;;;6.50;99.90;;;;;;5012836;28;20465;-49
2022/05/08 00:07:22;;;;;;;8.73;3.13;;;6.50;99.90;;;;;;5013507;28;20018;-51
2022/05/08 00:09:48;;;;;;;8.68;3.20;;;6.50;99.90;;;;;;5013370;28;20057;-48
2022/05/08 00:12:17;;;;;;;8.88;2.53;;;6.40;99.90;;;;;;5013222;28;20033;-51
2022/05/08 00:14:43;;;;;;;17.60;2.95;;;6.40;99.90;;;;;;5013097;28;20053;-52
2022/05/08 00:17:13;;;;;;;10.00;3.03;;;6.50;99.90;;;;;;5013231;28;20057;-49
2022/05/08 00:19:43;;;;;;;7.68;2.53;;;6.40;99.90;;;;;;5012730;28;20323;-50
2022/05/08 00:22:10;;;;;;;6.40;2.83;;;6.40;99.90;;;;;;4995379;28;20108;-50
2022/05/08 00:24:36;;;;;;;6.75;2.65;;;6.40;99.90;;;;;;5013002;28;20022;-47
2022/05/08 00:27:02;;;;;;;8.00;2.70;;;6.40;99.90;;;;;;5013137;28;20072;-49
2022/05/08 00:29:27;;;;;;;13.05;3.13;;;6.30;99.90;;;;;;5013093;28;20040;-49
2022/05/08 00:31:53;;;;;;;8.68;2.80;;;6.30;99.90;;;;;;5012698;28;20560;-48
2022/05/08 00:34:18;;;;;;;11.23;2.88;;;6.20;99.90;;;;;;5012816;28;20465;-48
2022/05/08 00:36:44;;;;;;;18.65;4.07;;;6.20;99.90;;;;;;5012917;28;20656;-48
2022/05/08 00:39:10;;;;;;;8.85;3.15;;;6.20;99.90;;;;;;5012672;28;20033;-48
2022/05/08 00:41:35;;;;;;;10.40;2.80;;;6.10;99.90;;;;;;5012332;28;20026;-49
2022/05/08 00:44:02;;;;;;;8.52;2.80;;;6.10;99.90;;;;;;5012423;28;20075;-48
2022/05/08 00:46:29;;;;;;;11.70;3.17;;;6.10;99.90;;;;;;5012023;28;20026;-47
2022/05/08 00:48:56;;;;;;;8.32;2.22;;;6.10;99.90;;;;;;4995355;28;20110;-47
2022/05/08 00:51:22;;;;;;;13.15;2.85;;;6.00;99.90;;;;;;5012156;28;20037;-45
2022/05/08 00:53:50;;;;;;;12.80;3.60;;;6.00;99.90;;;;;;5009880;28;20037;-49
2022/05/08 00:56:17;;;;;;;6.82;2.33;;;5.90;99.90;;;;;;5012577;28;20530;-47
2022/05/08 00:58:44;;;;;;;9.23;2.63;;;5.90;99.90;;;;;;5010997;28;20026;-49
2022/05/08 01:01:11;;;;;;;10.43;2.40;;;5.80;99.90;;;;;;4992355;28;20028;-49
2022/05/08 01:03:38;;;;;;;8.15;2.03;;;5.80;99.90;;;;;;5010497;28;20026;-47
2022/05/08 01:06:06;;;;;;;5.30;2.53;;;5.80;99.90;;;;;;5012262;28;20018;-48
2022/05/08 01:08:33;;;;;;;9.07;2.50;;;5.80;99.90;;;;;;5012460;28;20525;-48
2022/05/08 01:11:01;;;;;;;11.57;2.60;;;5.70;99.90;;;;;;4994633;28;20030;-49
2022/05/08 01:13:26;;;;;;;8.27;2.40;;;5.70;99.90;;;;;;4994264;28;20028;-47
2022/05/08 01:15:54;;;;;;;7.53;2.30;;;5.70;99.90;;;;;;4994508;28;20029;-49
2022/05/08 01:18:20;;;;;;;8.35;2.25;;;5.70;99.90;;;;;;5011914;28;20046;-47
2022/05/08 01:20:46;;;;;;;7.45;2.55;;;5.60;99.90;;;;;;5011835;28;20084;-47
2022/05/08 01:23:13;;;;;;;7.43;2.47;;;5.50;99.90;;;;;;5011843;28;20021;-48
2022/05/08 01:25:55;;;;;;;10.95;2.15;;;5.50;99.90;;;;;;5011839;28;20026;-49
2022/05/08 01:28:21;;;;;;;6.13;2.33;;;5.50;99.90;;;;;;5011904;28;20113;-49
2022/05/08 01:30:49;;;;;;;8.95;2.53;;;5.50;99.90;;;;;;5012001;28;20026;-47
2022/05/08 01:33:15;;;;;;;8.13;2.50;;;5.40;99.90;;;;;;5011636;28;20407;-49
2022/05/08 01:35:42;;;;;;;6.18;2.47;;;5.30;99.90;;;;;;4994307;28;20053;-47
2022/05/08 01:38:09;;;;;;;7.55;2.10;;;5.30;99.90;;;;;;5011867;28;20018;-48
2022/05/08 01:40:35;;;;;;;10.35;2.78;;;5.30;99.90;;;;;;5011780;28;20076;-49
2022/05/08 01:43:02;;;;;;;10.63;2.15;;;5.30;99.90;;;;;;5011718;28;20030;-48
2022/05/08 01:45:28;;;;;;;4.78;2.22;;;5.30;99.90;;;;;;5011868;28;20029;-48
2022/05/08 01:50:38;;;;;;;7.55;2.75;;;5.20;99.90;;;;;;5011671;28;20045;-47
2022/05/08 01:53:04;;;;;;;7.47;2.53;;;5.10;99.90;;;;;;4985962;28;20034;-47
2022/05/08 01:55:30;;;;;;;9.32;3.20;;;5.00;99.90;;;;;;4999743;28;20034;-50
2022/05/08 01:57:57;;;;;;;9.52;2.83;;;4.90;99.90;;;;;;5008933;28;20083;-48
2022/05/08 02:00:23;;;;;;;8.52;2.75;;;4.90;99.90;;;;;;4993703;28;20103;-51
2022/05/08 02:02:49;;;;;;;8.07;2.72;;;4.80;99.90;;;;;;4993432;28;20533;-47
2022/05/08 02:05:20;;;;;;;10.07;2.78;;;4.80;99.90;;;;;;5011076;28;20022;-47
2022/05/08 02:07:47;;;;;;;11.98;2.90;;;4.70;99.90;;;;;;5011243;28;20038;-48
2022/05/08 02:10:14;;;;;;;7.13;3.03;;;4.60;99.90;;;;;;5011295;28;20084;-48
2022/05/08 02:12:41;;;;;;;8.45;3.05;;;4.50;99.90;;;;;;5010951;28;20022;-47
2022/05/08 02:15:09;;;;;;;6.10;2.75;;;4.50;99.90;;;;;;5011036;28;20053;-49
2022/05/08 02:17:36;;;;;;;6.93;2.33;;;4.40;99.90;;;;;;5011115;28;20038;-49
2022/05/08 02:20:02;;;;;;;12.27;3.10;;;4.30;99.90;;;;;;5010844;28;20408;-52
2022/05/08 02:22:28;;;;;;;6.00;3.25;;;4.20;99.90;;;;;;5010995;28;20561;-49
2022/05/08 02:24:54;;;;;;;11.98;2.97;;;4.20;99.90;;;;;;5010971;28;20105;-52
2022/05/08 02:27:20;;;;;;;9.75;2.83;;;4.10;99.90;;;;;;4993350;28;20074;-50
2022/05/08 02:29:49;;;;;;;8.48;2.63;;;4.10;99.90;;;;;;5010749;28;20033;-49
2022/05/08 02:32:15;;;;;;;8.73;2.85;;;4.10;99.90;;;;;;5010609;28;20072;-49
2022/05/08 02:34:41;;;;;;;11.30;3.40;;;4.10;99.90;;;;;;5010719;28;20030;-49
2022/05/08 02:37:07;;;;;;;6.72;2.85;;;4.10;99.90;;;;;;5010603;28;20057;-47
2022/05/08 02:39:32;;;;;;;6.68;3.05;;;4.10;99.90;;;;;;5010520;28;20034;-50
2022/05/08 02:41:58;;;;;;;11.15;2.67;;;4.10;99.90;;;;;;5010472;28;20064;-49
2022/05/08 02:44:23;;;;;;;11.38;3.05;;;4.10;99.90;;;;;;5010628;28;20567;-48
2022/05/08 02:46:49;;;;;;;8.95;2.78;;;4.10;99.90;;;;;;5010670;28;20022;-48
2022/05/08 02:49:14;;;;;;;8.48;2.78;;;4.10;99.90;;;;;;5010627;28;20398;-49
2022/05/08 02:51:40;;;;;;;14.38;3.10;;;4.10;99.90;;;;;;5010272;28;20030;-48
2022/05/08 02:54:06;;;;;;;9.68;3.05;;;4.00;99.90;;;;;;5010037;28;20136;-51
2022/05/08 02:59:15;;;;;;;6.50;2.47;;;4.00;99.90;;;;;;5010701;28;20033;-49
2022/05/08 03:01:41;;;;;;;13.10;4.22;;;4.00;99.90;;;;;;5010319;28;20030;-51
2022/05/08 03:04:06;;;;;;;8.57;2.83;;;4.00;99.90;;;;;;5010201;28;20022;-49
2022/05/08 03:06:32;;;;;;;10.23;3.75;;;4.00;99.90;;;;;;5010000;28;20157;-47
2022/05/08 03:08:58;;;;;;;7.03;3.30;;;3.90;99.90;;;;;;5010127;28;20029;-50
2022/05/08 03:11:26;;;;;;;7.00;2.70;;;4.00;99.90;;;;;;4992379;28;20022;-47
2022/05/08 03:13:53;;;;;;;5.50;2.55;;;3.90;99.90;;;;;;4992379;28;20442;-50
2022/05/08 03:16:19;;;;;;;8.20;2.88;;;3.90;99.90;;;;;;4992514;28;20030;-51
2022/05/08 03:18:45;;;;;;;15.50;3.75;;;3.90;99.90;;;;;;5009733;28;20469;-47
2022/05/08 03:21:13;;;;;;;6.60;3.17;;;3.80;99.90;;;;;;5009832;28;20533;-47
2022/05/08 03:23:40;;;;;;;12.82;3.88;;;3.80;99.90;;;;;;5010041;28;20026;-47
2022/05/08 03:26:06;;;;;;;14.85;3.50;;;3.70;99.90;;;;;;5010022;28;20490;-49
2022/05/08 03:28:32;;;;;;;12.68;3.10;;;3.70;99.90;;;;;;5010161;28;20534;-48
2022/05/08 03:31:01;;;;;;;6.72;3.22;;;3.70;99.90;;;;;;5009976;28;20033;-48
2022/05/08 03:33:28;;;;;;;8.00;3.10;;;3.70;99.90;;;;;;5009605;28;20478;-47
2022/05/08 03:35:54;;;;;;;8.75;2.60;;;3.60;99.90;;;;;;4992582;28;20040;-50
2022/05/08 03:38:20;;;;;;;9.35;4.35;;;3.60;99.90;;;;;;5010186;28;20449;-47
2022/05/08 03:40:46;;;;;;;9.23;3.38;;;3.60;99.90;;;;;;5010342;28;20052;-47
2022/05/08 03:43:11;;;;;;;8.85;3.13;;;3.60;99.90;;;;;;5009540;28;20041;-47
2022/05/08 03:45:37;;;;;;;11.35;3.05;;;3.70;99.90;;;;;;5009636;28;20141;-48
2022/05/08 03:48:04;;;;;;;8.07;3.42;;;3.60;99.90;;;;;;5009555;28;20105;-50
2022/05/08 03:50:29;;;;;;;11.32;3.70;;;3.60;99.90;;;;;;5009810;28;20034;-48
2022/05/08 03:52:59;;;;;;;9.90;3.65;;;3.60;99.90;;;;;;5009633;28;20038;-48
2022/05/08 03:55:25;;;;;;;11.07;4.13;;;3.60;99.90;;;;;;5009595;28;20037;-48
2022/05/08 03:57:51;;;;;;;12.35;3.85;;;3.60;99.90;;;;;;5009718;28;20413;-50
2022/05/08 04:00:18;;;;;;;8.52;3.35;;;3.60;99.90;;;;;;4991959;28;20049;-49
2022/05/08 04:02:43;;;;;;;10.55;3.42;;;3.60;99.90;;;;;;5009316;28;20113;-49
2022/05/08 04:05:10;;;;;;;10.13;3.50;;;3.60;99.90;;;;;;5009347;28;20529;-49
2022/05/08 04:07:37;;;;;;;9.98;3.55;;;3.60;99.90;;;;;;5009466;28;20030;-51
2022/05/08 04:10:03;;;;;;;12.85;4.25;;;3.60;99.90;;;;;;5009639;28;20030;-47
2022/05/08 04:12:29;;;;;;;10.73;3.75;;;3.60;99.90;;;;;;5009191;28;20498;-47
2022/05/08 04:14:55;;;;;;;10.30;3.92;;;3.60;99.90;;;;;;5009545;28;20045;-47
2022/05/08 04:17:20;;;;;;;13.57;4.70;;;3.60;99.90;;;;;;4992295;28;20030;-47
2022/05/08 04:19:49;;;;;;;8.65;4.25;;;3.60;99.90;;;;;;5009738;28;20026;-50
2022/05/08 04:24:58;;;;;;;12.82;3.75;;;3.60;99.90;;;;;;5013012;28;20143;-48
2022/05/08 04:27:24;;;;;;;6.60;4.10;;;3.70;99.90;;;;;;5012728;28;20026;-47
2022/05/08 04:29:50;;;;;;;13.63;3.97;;;3.60;99.90;;;;;;5012891;28;20115;-50
2022/05/08 04:32:16;;;;;;;14.77;4.32;;;3.60;99.90;;;;;;5012742;28;20048;-49
2022/05/08 04:34:41;;;;;;;7.85;3.53;;;3.70;99.90;;;;;;5012695;28;20029;-48
2022/05/08 04:37:07;;;;;;;9.68;4.38;;;3.70;99.90;;;;;;4995086;28;20445;-49
2022/05/08 04:39:33;;;;;;;11.55;4.05;;;3.70;99.90;;;;;;5012576;28;20120;-49
2022/05/08 04:41:59;;;;;;;10.20;3.92;;;3.70;99.90;;;;;;5012380;28;20116;-52
2022/05/08 04:44:25;;;;;;;10.70;4.55;;;3.70;99.90;;;;;;5012369;28;20113;-47
2022/05/08 04:46:50;;;;;;;9.93;4.90;;;3.80;99.90;;;;;;5012464;28;20036;-50
2022/05/08 04:49:16;;;;;;;11.52;4.28;;;3.80;99.90;;;;;;5012505;28;20198;-51
2022/05/08 04:51:41;;;;;;;10.38;4.35;;;3.80;99.90;;;;;;5012229;28;20544;-48
2022/05/08 04:54:07;;;;;;;10.77;4.30;;;3.90;99.90;;;;;;5012371;28;20038;-50
2022/05/08 04:56:32;;;;;;;6.78;3.58;;;3.90;99.90;;;;;;5012709;28;20037;-48
2022/05/08 04:58:58;;;;;;;13.23;4.80;;;3.90;99.90;;;;;;5012442;28;20029;-47
2022/05/08 05:01:24;;;;;;;9.48;4.38;;;4.00;99.90;;;;;;5012243;28;20110;-49
2022/05/08 05:03:50;;;;;;;10.40;3.83;;;4.00;99.90;;;;;;5012217;28;20606;-50
2022/05/08 05:06:16;;;;;;;11.65;4.78;;;4.10;99.90;;;;;;5012035;28;20409;-47
2022/05/08 05:08:42;;;;;;;12.50;4.32;;;4.10;99.90;;;;;;5012142;28;20026;-47
2022/05/08 05:11:09;;;;;;;11.05;4.53;;;4.20;99.90;;;;;;5012236;28;20079;-49
2022/05/08 05:13:38;;;;;;;8.43;3.67;;;4.20;99.90;;;;;;4994330;28;20030;-48
2022/05/08 05:16:06;;;;;;;13.68;4.07;;;4.30;99.90;;;;;;5012302;28;20034;-46
2022/05/08 05:18:32;;;;;;;8.57;3.30;;;4.40;99.90;;;;;;5011599;28;20030;-48
2022/05/08 05:20:58;;;;;;;6.63;3.72;;;4.40;99.90;;;;;;5012511;28;20048;-48
2022/05/08 05:23:23;;;;;;;10.13;3.15;;;4.50;99.90;;;;;;4994166;28;20140;-50
2022/05/08 05:25:49;;;;;;;11.85;3.70;;;4.60;99.90;;;;;;4994321;28;20032;-48
2022/05/08 05:28:16;;;;;;;15.75;3.95;;;4.70;99.90;;;;;;5012047;28;20437;-52
2022/05/08 05:30:41;;;;;;;11.05;3.58;;;4.80;99.90;;;;;;5011843;28;20112;-50
2022/05/08 05:33:16;;;;;;;12.07;4.97;;;4.90;99.90;;;;;;5011929;28;20060;-48
2022/05/08 05:35:42;;;;;;;12.80;4.63;;;5.00;99.90;;;;;;5011970;28;20029;-48
2022/05/08 05:38:08;;;;;;;8.07;3.58;;;5.00;99.90;;;;;;5011906;28;20065;-52
2022/05/08 05:40:34;;;;;;;13.70;4.30;;;5.10;99.90;;;;;;5011702;28;20041;-48
2022/05/08 05:43:00;;;;;;;6.38;3.70;;;5.20;99.90;;;;;;5011589;28;20091;-48
2022/05/08 05:45:26;;;;;;;10.32;3.08;;;5.30;99.90;;;;;;5011811;28;20061;-51
2022/05/08 05:47:54;;;;;;;10.93;3.40;;;5.40;99.90;;;;;;5011605;28;20041;-50
2022/05/08 05:50:22;;;;;;;6.35;2.90;;;5.50;99.90;;;;;;5011521;28;20096;-48
2022/05/08 05:52:49;;;;;;;11.40;3.13;;;5.60;99.90;;;;;;5011341;28;20041;-50
2022/05/08 05:55:14;;;;;;;8.95;3.20;;;5.70;99.90;;;;;;5011360;28;20140;-48
2022/05/08 05:57:40;;;;;;;8.05;3.10;;;5.90;99.90;;;;;;5011341;28;20065;-48
2022/05/08 06:00:09;;;;;;;6.13;2.75;;;5.90;99.90;;;;;;5011337;28;20030;-47
2022/05/08 06:02:36;;;;;;;10.57;3.70;;;6.10;99.90;;;;;;5011028;28;20056;-49
2022/05/08 06:05:02;;;;;;;10.65;2.95;;;6.20;99.90;;;;;;5011154;28;20033;-48
2022/05/08 06:07:28;;;;;;;8.88;2.97;;;6.30;99.90;;;;;;5010981;28;20031;-49
2022/05/08 06:09:53;;;;;;;14.85;2.83;;;6.50;99.90;;;;;;5011174;28;20030;-48
2022/05/08 06:12:19;;;;;;;14.68;2.88;;;6.70;99.90;;;;;;4993595;28;20026;-49
2022/05/08 06:14:46;;;;;;;9.93;3.55;;;6.90;99.90;;;;;;5011244;28;20044;-48
2022/05/08 06:17:12;;;;;;;10.60;3.00;;;7.10;99.90;;;;;;5011233;28;20132;-49
2022/05/08 06:19:38;;;;;;;11.50;2.72;;;7.30;99.90;;;;;;5010522;28;20041;-51
2022/05/08 06:22:04;;;;;;;14.38;3.53;;;7.50;99.90;;;;;;5010929;28;20030;-50
2022/05/08 06:24:30;;;;;;;11.98;2.80;;;7.70;99.90;;;;;;5010866;28;20033;-49
2022/05/08 06:26:56;;;;;;;9.00;3.22;;;7.90;99.90;;;;;;5010833;28;20026;-47
2022/05/08 06:29:22;;;;;;;11.20;2.92;;;8.10;99.90;;;;;;4993216;28;20037;-50
2022/05/08 06:31:50;;;;;;;12.43;2.58;;;8.30;99.90;;;;;;5010437;28;20034;-50
2022/05/08 06:34:16;;;;;;;10.85;2.97;;;8.50;99.90;;;;;;5010461;28;20030;-50
2022/05/08 06:36:42;;;;;;;9.55;2.28;;;8.60;99.90;;;;;;5010385;28;20038;-50
2022/05/08 06:39:07;;;;;;;13.05;2.78;;;8.90;99.90;;;;;;5010294;28;20076;-48
2022/05/08 06:41:33;;;;;;;10.93;3.03;;;9.00;99.90;;;;;;5010085;28;20026;-49
2022/05/08 06:43:59;;;;;;;11.07;3.17;;;9.20;99.90;;;;;;5009649;28;20057;-51
2022/05/08 06:46:24;;;;;;;8.73;2.75;;;9.40;99.90;;;;;;4992569;28;20041;-53
2022/05/08 06:48:50;;;;;;;13.90;3.78;;;9.50;99.90;;;;;;4992742;28;20125;-49
2022/05/08 06:51:16;;;;;;;9.95;2.45;;;9.80;99.90;;;;;;5010350;28;20030;-49
2022/05/08 06:53:43;;;;;;;11.35;3.08;;;9.90;99.90;;;;;;5010176;28;20042;-49
2022/05/08 06:56:10;;;;;;;12.02;3.15;;;10.10;99.90;;;;;;5010287;28;20034;-46
2022/05/08 07:01:34;;;;;;;11.10;2.90;;;10.30;99.90;;;;;;5009803;28;20037;-48
2022/05/08 07:01:38;;;;;;;12.48;2.33;;;10.30;99.90;;;;;;5009568;28;20125;-50
2022/05/08 07:04:07;;;;;;;9.40;2.47;;;10.40;99.90;;;;;;5009823;28;20072;-51
2022/05/08 07:06:34;;;;;;;11.13;3.60;;;10.50;99.90;;;;;;5009715;28;20095;-49
2022/05/08 07:09:00;;;;;;;11.27;2.65;;;10.50;99.90;;;;;;5010143;28;20541;-52
2022/05/08 07:11:26;;;;;;;10.25;2.97;;;10.70;99.90;;;;;;5009982;28;20029;-49
2022/05/08 07:13:51;;;;;;;13.98;2.67;;;10.70;99.90;;;;;;5010231;28;20486;-48
2022/05/08 07:16:17;;;;;;;12.68;2.85;;;10.90;99.90;;;;;;4992476;28;20486;-47
2022/05/08 07:18:43;;;;;;;9.65;3.47;;;10.80;99.90;;;;;;5009799;28;20045;-48
2022/05/08 07:21:08;;;;;;;10.40;3.08;;;10.70;99.90;;;;;;5010125;28;20118;-51
2022/05/08 07:23:34;;;;;;;10.48;2.50;;;10.70;99.90;;;;;;5010191;28;20033;-52
2022/05/08 07:25:59;;;;;;;8.85;3.03;;;11.00;99.90;;;;;;5010077;28;20026;-48
2022/05/08 07:28:25;;;;;;;10.77;2.35;;;11.30;99.90;;;;;;5010276;28;20414;-52
2022/05/08 07:30:51;;;;;;;8.75;3.05;;;11.60;99.90;;;;;;5010262;28;20065;-48
2022/05/08 07:33:16;;;;;;;9.65;2.63;;;11.90;99.90;;;;;;5010045;28;20037;-49
2022/05/08 07:38:31;;;;;;;9.77;2.78;;;12.30;99.90;;;;;;5010217;28;20052;-50
2022/05/08 07:40:58;;;;;;;9.07;3.33;;;12.30;99.90;;;;;;5009775;28;20030;-52
2022/05/08 07:43:25;;;;;;;8.43;2.78;;;12.30;99.90;;;;;;5008623;28;20018;-49
2022/05/08 07:45:50;;;;;;;10.38;2.78;;;12.60;99.90;;;;;;5009194;28;20397;-48
2022/05/08 07:48:16;;;;;;;10.52;1.92;;;12.70;99.90;;;;;;5009949;28;20018;-51
2022/05/08 07:50:42;;;;;;;9.25;2.60;;;12.80;99.90;;;;;;5009923;28;20482;-50
2022/05/08 07:53:08;;;;;;;5.68;2.33;;;12.90;99.90;;;;;;5009642;28;20034;-51
2022/05/08 07:55:34;;;;;;;10.75;2.80;;;13.10;99.90;;;;;;5012969;28;20038;-51
2022/05/08 07:58:00;;;;;;;6.68;2.63;;;13.30;99.90;;;;;;4995853;28;20034;-50
2022/05/08 08:00:26;;;;;;;11.52;3.10;;;13.40;99.90;;;;;;5013518;28;20025;-48
2022/05/08 08:02:52;;;;;;;8.55;2.47;;;13.50;99.90;;;;;;5013399;28;20065;-49
2022/05/08 08:05:17;;;;;;;12.85;2.97;;;13.70;99.90;;;;;;4996019;28;20054;-54
2022/05/08 08:07:43;;;;;;;7.25;2.00;;;13.70;99.90;;;;;;5013753;28;20061;-53
2022/05/08 08:10:09;;;;;;;15.85;3.13;;;13.70;99.90;;;;;;5013731;28;20377;-52
2022/05/08 08:12:35;;;;;;;9.68;3.08;;;13.90;99.90;;;;;;5013310;28;20037;-50
2022/05/08 08:15:01;;;;;;;7.65;2.63;;;14.10;99.50;;;;;;5013184;28;20030;-52
2022/05/08 08:17:27;;;;;;;13.10;2.97;;;14.40;99.90;;;;;;5013406;28;20109;-48
2022/05/08 08:19:53;;;;;;;8.20;2.50;;;14.60;98.60;;;;;;5012943;28;20439;-47
2022/05/08 08:22:19;;;;;;;8.68;2.65;;;14.20;96.30;;;;;;5012958;28;20065;-53
2022/05/08 08:24:46;;;;;;;10.77;3.05;;;14.00;98.20;;;;;;5012978;28;20125;-48
2022/05/08 08:27:12;;;;;;;9.63;2.03;;;14.20;98.40;;;;;;5012831;28;20026;-48
2022/05/08 08:29:37;;;;;;;6.57;2.33;;;14.60;98.60;;;;;;4995306;28;20034;-49
2022/05/08 08:32:03;;;;;;;9.82;3.00;;;15.00;98.50;;;;;;5012717;28;20025;-48
2022/05/08 08:34:29;;;;;;;7.65;1.98;;;15.30;95.80;;;;;;5012907;28;20121;-55
2022/05/08 08:36:54;;;;;;;8.05;2.72;;;15.30;94.50;;;;;;5013089;28;20026;-54
2022/05/08 08:39:20;;;;;;;5.90;2.13;;;15.30;94.20;;;;;;5012899;28;20053;-52
2022/05/08 08:42:12;;;;;;;11.07;3.35;;;15.20;93.60;;;;;;5012657;28;20030;-51
2022/05/08 08:47:43;;;;;;;12.68;2.88;;;15.50;95.20;;;;;;5013618;28;20056;-51
2022/05/08 08:50:10;;;;;;;9.32;2.17;;;15.20;93.70;;;;;;5013544;28;20367;-53
2022/05/08 08:52:36;;;;;;;11.10;2.65;;;15.30;93.70;;;;;;5012824;28;20026;-54
2022/05/08 08:55:02;;;;;;;6.22;2.80;;;15.10;93.70;;;;;;5012737;28;20124;-52
2022/05/08 08:57:28;;;;;;;7.55;2.42;;;15.30;94.80;;;;;;5037228;23;20371;-48
2022/05/08 08:59:54;;;;;;;8.18;2.20;;;15.50;94.60;;;;;;5050662;28;20049;-48
2022/05/08 09:02:20;;;;;;;8.57;2.63;;;15.20;93.10;;;;;;5051928;28;20033;-49
2022/05/08 09:04:49;;;;;;;7.55;2.35;;;15.10;93.30;;;;;;5051995;28;20017;-51
2022/05/08 09:07:33;;;;;;;8.50;2.15;;;15.40;94.50;;;;;;5051852;28;20423;-52
2022/05/08 09:10:09;;;;;;;10.70;2.30;;;15.80;94.50;;;;;;5032210;28;20021;-50
2022/05/08 09:12:36;;;;;;;9.70;2.55;;;16.10;96.40;;;;;;5030868;28;20425;-48
2022/05/08 09:15:20;;;;;;;9.73;2.00;;;16.40;94.00;;;;;;5032424;28;20398;-50
2022/05/08 09:17:49;;;;;;;8.68;2.50;;;16.50;92.10;;;;;;5032202;28;20029;-51
2022/05/08 09:20:35;;;;;;;8.68;2.13;;;16.20;92.00;;;;;;5031783;28;20029;-50
2022/05/08 09:23:00;;;;;;;6.97;2.60;;;16.40;91.10;;;;;;5032234;28;20018;-50
2022/05/08 09:25:47;;;;;;;7.95;2.08;;;16.00;90.50;;;;;;5032224;28;20029;-47
2022/05/08 09:28:14;;;;;;;10.93;2.50;;;15.70;91.10;;;;;;5031964;28;20044;-48
2022/05/08 09:31:06;;;;;;;7.03;2.40;;;15.50;91.30;;;;;;5032147;28;20083;-48
2022/05/08 09:33:44;;;;;;;5.78;1.92;;;15.80;93.50;;;;;;5031941;28;20350;-52
2022/05/08 09:36:18;;;;;;;9.10;2.53;;;15.60;91.70;;;;;;5032254;28;20025;-50
2022/05/08 09:38:45;;;;;;;11.48;2.67;;;15.70;91.50;;;;;;5031859;28;20056;-51
2022/05/08 09:41:12;;;;;;;6.90;2.42;;;15.80;91.80;;;;;;5031548;28;20116;-53
2022/05/08 09:43:40;;;;;;;11.35;2.10;;;15.90;90.90;;;;;;5031758;28;20021;-51
2022/05/08 09:46:06;;;;;;;10.27;2.78;;;15.80;90.10;;;;;;5030518;28;20636;-50
2022/05/08 09:48:33;;;;;;;9.75;2.20;;;15.70;91.40;;;;;;5030483;28;20362;-51
2022/05/08 09:51:01;;;;;;;13.40;2.95;;;15.70;90.50;;;;;;5031835;28;20025;-47
2022/05/08 09:53:27;;;;;;;4.93;2.63;;;15.60;89.20;;;;;;5031551;28;20025;-48
2022/05/08 09:55:58;;;;;;;10.57;3.30;;;15.70;91.80;;;;;;5031427;28;20079;-50
2022/05/08 09:58:24;;;;;;;8.48;2.55;;;15.90;89.00;;;;;;5030340;28;20666;-48
2022/05/08 10:00:54;;;;;;;5.85;2.15;;;16.20;90.60;;;;;;5030293;28;20061;-52
2022/05/08 10:03:20;;;;;;;5.70;1.83;;;16.00;86.80;;;;;;5031665;28;20108;-53
2022/05/08 10:05:47;;;;;;;8.73;2.72;;;16.30;88.80;;;;;;5030680;28;20104;-50
2022/05/08 10:08:15;;;;;;;9.23;3.08;;;16.60;90.30;;;;;;5031496;28;20393;-49
2022/05/08 10:13:53;;;;;;;5.40;2.00;;;16.70;89.40;;;;;;5031643;28;20041;-49
2022/05/08 10:16:49;;;;;;;9.10;2.63;;;16.70;90.20;;;;;;5031333;28;20456;-49
2022/05/08 10:19:27;;;;;;;8.38;2.53;;;16.50;86.10;;;;;;5030058;28;20021;-49
2022/05/08 10:22:13;;;;;;;5.68;2.00;;;16.30;87.90;;;;;;5031148;28;20110;-49
2022/05/08 10:24:41;;;;;;;7.28;2.65;;;16.40;84.70;;;;;;5030826;28;20017;-49
2022/05/08 10:27:32;;;;;;;8.95;4.28;;;16.50;89.30;;;;;;5029644;28;20053;-50
2022/05/08 10:29:57;;;;;;;13.88;2.70;;;16.30;86.60;;;;;;5031166;28;20148;-51
2022/05/08 10:32:32;;;;;;;9.13;2.50;;;16.00;88.40;;;;;;5029421;28;20069;-48
2022/05/08 10:35:15;;;;;;;6.15;2.65;;;16.00;89.00;;;;;;5030979;28;20051;-51
2022/05/08 10:37:46;;;;;;;8.80;2.75;;;16.10;88.20;;;;;;5030847;28;20052;-48
2022/05/08 10:40:23;;;;;;;8.80;2.22;;;16.10;89.10;;;;;;5030904;28;20041;-47
2022/05/08 10:42:49;;;;;;;9.98;3.50;;;15.80;84.30;;;;;;5029314;28;20025;-49
2022/05/08 10:45:46;;;;;;;3.90;2.10;;;15.80;84.80;;;;;;5029395;28;20083;-48
2022/05/08 10:48:17;;;;;;;7.28;3.03;;;15.90;85.20;;;;;;5026123;28;20064;-50
2022/05/08 10:50:54;;;;;;;7.63;2.63;;;15.70;84.40;;;;;;5030897;28;20592;-49
2022/05/08 10:53:23;;;;;;;9.63;2.60;;;15.40;88.30;;;;;;5028906;28;20029;-48
2022/05/08 10:55:49;;;;;;;5.80;2.70;;;15.20;85.50;;;;;;5030468;28;20026;-51
2022/05/08 10:58:15;;;;;;;6.05;2.30;;;15.30;87.60;;;;;;5030479;28;20036;-48
2022/05/08 11:00:41;;;;;;;5.57;1.83;;;15.40;89.10;;;;;;5030573;28;20026;-48
2022/05/08 11:03:06;;;;;;;7.32;2.53;;;15.60;90.20;;;;;;5030383;28;20060;-48
2022/05/08 11:05:36;;;;;;;4.65;2.00;;;15.70;89.10;;;;;;5030211;28;20067;-48
2022/05/08 11:08:07;;;;;;;4.65;2.40;;;15.90;90.60;;;;;;5030345;28;20033;-46
2022/05/08 11:10:40;;;;;;;6.97;2.10;;;16.00;88.10;;;;;;5030310;28;20033;-52
2022/05/08 11:13:17;;;;;;;9.18;2.92;;;16.00;89.00;;;;;;5030110;28;20124;-48
2022/05/08 11:15:43;;;;;;;3.95;1.70;;;16.20;90.00;;;;;;5028980;28;20047;-48
2022/05/08 11:18:14;;;;;;;8.65;2.45;;;16.30;87.80;;;;;;5028793;28;20116;-47
2022/05/08 11:20:44;;;;;;;9.10;2.72;;;16.40;84.60;;;;;;5030100;28;20017;-48
2022/05/08 11:23:14;;;;;;;8.32;2.90;;;16.30;84.80;;;;;;5028905;28;20029;-48
2022/05/08 11:25:41;;;;;;;9.77;2.85;;;16.30;84.30;;;;;;5030248;28;20443;-49
2022/05/08 11:28:14;;;;;;;8.50;1.90;;;16.30;84.70;;;;;;5029886;28;20091;-47
2022/05/08 11:30:39;;;;;;;4.97;2.20;;;16.40;84.00;;;;;;5029805;28;20397;-49
2022/05/08 11:36:04;;;;;;;6.55;2.53;;;16.50;84.50;;;;;;5030404;28;20460;-48
2022/05/08 11:38:48;;;;;;;11.25;2.40;;;16.70;82.80;;;;;;5029838;28;20159;-48
2022/05/08 11:41:16;;;;;;;7.03;2.60;;;16.50;81.80;;;;;;5029783;28;20118;-51
2022/05/08 11:43:43;;;;;;;11.07;2.95;;;16.60;84.60;;;;;;5028517;28;20029;-48
2022/05/08 11:46:28;;;;;;;8.70;2.17;;;16.60;81.70;;;;;;5029804;28;20071;-47
2022/05/08 11:48:54;;;;;;;7.97;2.35;;;16.60;83.30;;;;;;5029905;28;20037;-49
2022/05/08 11:51:20;;;;;;;10.35;3.28;;;16.50;82.80;;;;;;5029397;28;20030;-48
2022/05/08 11:53:50;;;;;;;6.32;2.10;;;16.50;81.50;;;;;;5030057;28;20026;-49
2022/05/08 11:56:32;;;;;;;7.88;2.17;;;16.60;81.00;;;;;;5028436;28;20147;-47
2022/05/08 11:59:00;;;;;;;6.25;2.85;;;16.60;81.00;;;;;;5029556;28;20639;-48
2022/05/08 12:01:38;;;;;;;7.47;2.80;;;16.80;84.50;;;;;;5029810;28;20036;-50
2022/05/08 12:04:24;;;;;;;6.95;2.55;;;16.90;84.90;;;;;;5029728;28;20029;-50
2022/05/08 12:07:07;;;;;;;8.35;2.17;;;16.90;80.00;;;;;;5029584;28;20053;-50
2022/05/08 12:09:52;;;;;;;9.15;2.30;;;16.90;80.80;;;;;;5029458;28;20030;-48
2022/05/08 12:12:37;;;;;;;8.25;2.35;;;16.70;78.70;;;;;;5029187;28;20040;-54
2022/05/08 12:15:06;;;;;;;8.45;2.92;;;16.90;80.50;;;;;;5029915;28;20026;-49
2022/05/08 12:17:54;;;;;;;7.10;2.30;;;16.90;78.60;;;;;;5029543;28;20022;-52
2022/05/08 12:20:27;;;;;;;6.47;1.95;;;16.90;82.00;;;;;;5029469;28;20022;-52
2022/05/08 12:23:06;;;;;;;6.57;2.42;;;17.10;80.50;;;;;;5029425;28;20025;-51
2022/05/08 12:25:32;;;;;;;9.88;2.20;;;17.30;79.00;;;;;;5029602;28;20066;-50
2022/05/08 12:27:58;;;;;;;6.35;1.95;;;17.10;78.40;;;;;;5029217;28;20024;-48
2022/05/08 12:30:24;;;;;;;8.30;2.30;;;17.30;80.90;;;;;;5029382;28;20405;-47
2022/05/08 12:32:51;;;;;;;5.80;1.77;;;17.50;80.20;;;;;;5029094;28;20099;-47
2022/05/08 12:35:18;;;;;;;7.80;2.55;;;17.60;74.60;;;;;;5028148;28;20029;-47
2022/05/08 12:37:47;;;;;;;5.65;2.17;;;17.60;75.70;;;;;;5029567;28;20509;-49
2022/05/08 12:40:13;;;;;;;5.15;2.10;;;17.60;74.40;;;;;;5029484;28;20037;-50
2022/05/08 12:42:39;;;;;;;4.95;2.22;;;17.40;72.70;;;;;;5032218;28;20025;-48
2022/05/08 12:45:06;;;;;;;6.60;2.17;;;17.40;73.70;;;;;;5033015;28;20114;-49
2022/05/08 12:47:32;;;;;;;7.00;2.28;;;17.70;76.50;;;;;;5032727;28;20029;-50
2022/05/08 12:49:57;;;;;;;8.32;2.33;;;17.80;74.00;;;;;;5031393;28;20030;-48
2022/05/08 12:52:23;;;;;;;5.15;1.88;;;17.50;72.70;;;;;;5032465;28;20029;-47
2022/05/08 12:54:49;;;;;;;6.90;2.58;;;17.50;75.50;;;;;;5032966;28;20362;-49
2022/05/08 12:59:42;;;;;;;7.22;2.10;;;17.80;77.10;;;;;;5032879;28;20033;-48
2022/05/08 13:00:00;;;;;;;4.82;2.17;;;18.00;75.60;;;;;;5032586;28;20413;-48
2022/05/08 13:02:28;;;;;;;6.55;2.47;;;18.00;75.60;;;;;;5032562;28;20037;-48
2022/05/08 13:04:54;;;;;;;6.60;2.55;;;18.30;78.40;;;;;;5032566;28;20049;-48
2022/05/08 13:07:20;;;;;;;5.88;1.88;;;18.40;74.10;;;;;;5032695;28;20056;-50
2022/05/08 13:09:46;;;;;;;6.80;1.90;;;18.60;73.10;;;;;;5031070;28;20566;-48
2022/05/08 13:12:12;;;;;;;11.60;2.08;;;18.30;71.30;;;;;;5030801;28;20029;-50